sensor_id;sensor_type;location;lat;lon;timestamp;temperature;humidity
35043;DHT22;21230;51.170;17.024;2023-07-08T00:00:43;15.60;99.90
35043;DHT22;21230;51.170;17.024;2023-07-08T00:03:10;15.60;99.90
35043;DHT22;21230;51.170;17.024;2023-07-08T00:05:35;15.60;99.90
35043;DHT22;21230;51.170;17.024;2023-07-08T00:08:02;15.50;99.90
35043;DHT22;21230;51.170;17.024;2023-07-08T00:10:28;15.50;99.90
35043;DHT22;21230;51.170;17.024;2023-07-08T00:12:55;15.40;99.90
35043;DHT22;21230;51.170;17.024;2023-07-08T00:15:26;15.30;99.90
35043;DHT22;21230;51.170;17.024;2023-07-08T00:17:53;15.30;99.90
35043;DHT22;21230;51.170;17.024;2023-07-08T00:20:23;15.20;99.90
35043;DHT22;21230;51.170;17.024;2023-07-08T00:22:54;15.10;99.90
35043;DHT22;21230;51.170;17.024;2023-07-08T00:25:20;15.10;99.90
35043;DHT22;21230;51.170;17.024;2023-07-08T00:27:47;15.00;99.90
35043;DHT22;21230;51.170;17.024;2023-07-08T00:32:42;15.00;99.90
35043;DHT22;21230;51.170;17.024;2023-07-08T00:35:08;15.00;99.90
35043;DHT22;21230;51.170;17.024;2023-07-08T00:37:34;15.00;99.90
35043;DHT22;21230;51.170;17.024;2023-07-08T00:39:59;15.00;99.90
35043;DHT22;21230;51.170;17.024;2023-07-08T00:42:25;15.10;99.90
35043;DHT22;21230;51.170;17.024;2023-07-08T00:44:51;15.10;99.90
35043;DHT22;21230;51.170;17.024;2023-07-08T00:47:18;15.10;99.90
35043;DHT22;21230;51.170;17.024;2023-07-08T00:49:50;15.00;99.90
35043;DHT22;21230;51.170;17.024;2023-07-08T00:52:18;15.00;99.90
35043;DHT22;21230;51.170;17.024;2023-07-08T00:54:45;14.90;99.90
35043;DHT22;21230;51.170;17.024;2023-07-08T00:57:11;14.80;99.90
35043;DHT22;21230;51.170;17.024;2023-07-08T00:59:42;14.60;99.90
35043;DHT22;21230;51.170;17.024;2023-07-08T01:02:19;14.50;99.90
35043;DHT22;21230;51.170;17.024;2023-07-08T01:04:56;14.50;99.90
35043;DHT22;21230;51.170;17.024;2023-07-08T01:07:24;14.50;99.90
35043;DHT22;21230;51.170;17.024;2023-07-08T01:09:52;14.50;99.90
35043;DHT22;21230;51.170;17.024;2023-07-08T01:12:21;14.50;99.90
35043;DHT22;21230;51.170;17.024;2023-07-08T01:14:48;14.50;99.90
35043;DHT22;21230;51.170;17.024;2023-07-08T01:17:14;14.50;99.90
35043;DHT22;21230;51.170;17.024;2023-07-08T01:19:41;14.40;99.90
35043;DHT22;21230;51.170;17.024;2023-07-08T01:22:08;14.50;99.90
35043;DHT22;21230;51.170;17.024;2023-07-08T01:24:37;14.50;99.90
35043;DHT22;21230;51.170;17.024;2023-07-08T01:27:04;14.50;99.90
35043;DHT22;21230;51.170;17.024;2023-07-08T01:29:31;14.60;99.90
35043;DHT22;21230;51.170;17.024;2023-07-08T01:31:57;14.60;99.90
35043;DHT22;21230;51.170;17.024;2023-07-08T01:34:23;14.70;99.90
35043;DHT22;21230;51.170;17.024;2023-07-08T01:36:50;14.60;99.90
35043;DHT22;21230;51.170;17.024;2023-07-08T01:39:17;14.60;99.90
35043;DHT22;21230;51.170;17.024;2023-07-08T01:41:45;14.50;99.90
35043;DHT22;21230;51.170;17.024;2023-07-08T01:46:49;14.40;99.90
35043;DHT22;21230;51.170;17.024;2023-07-08T01:49:15;14.40;99.90
35043;DHT22;21230;51.170;17.024;2023-07-08T01:51:40;14.40;99.90
35043;DHT22;21230;51.170;17.024;2023-07-08T01:54:06;14.40;99.90
35043;DHT22;21230;51.170;17.024;2023-07-08T01:56:32;14.40;99.90
35043;DHT22;21230;51.170;17.024;2023-07-08T01:58:58;14.40;99.90
35043;DHT22;21230;51.170;17.024;2023-07-08T02:01:23;14.50;99.90
35043;DHT22;21230;51.170;17.024;2023-07-08T02:03:49;14.50;99.90
35043;DHT22;21230;51.170;17.024;2023-07-08T02:06:15;14.50;99.90
35043;DHT22;21230;51.170;17.024;2023-07-08T02:08:40;14.50;99.90
35043;DHT22;21230;51.170;17.024;2023-07-08T02:11:06;14.50;99.90
35043;DHT22;21230;51.170;17.024;2023-07-08T02:13:31;14.50;99.90
35043;DHT22;21230;51.170;17.024;2023-07-08T02:15:57;14.60;99.90
35043;DHT22;21230;51.170;17.024;2023-07-08T02:18:23;14.60;99.90
35043;DHT22;21230;51.170;17.024;2023-07-08T02:20:50;14.50;99.90
35043;DHT22;21230;51.170;17.024;2023-07-08T02:23:15;14.30;99.90
35043;DHT22;21230;51.170;17.024;2023-07-08T02:25:41;14.10;99.90
35043;DHT22;21230;51.170;17.024;2023-07-08T02:28:07;14.00;99.90
35043;DHT22;21230;51.170;17.024;2023-07-08T02:30:32;13.90;99.90
35043;DHT22;21230;51.170;17.024;2023-07-08T02:32:58;13.70;99.90
35043;DHT22;21230;51.170;17.024;2023-07-08T02:35:28;13.60;99.90
35043;DHT22;21230;51.170;17.024;2023-07-08T02:37:54;13.50;99.90
35043;DHT22;21230;51.170;17.024;2023-07-08T02:40:20;13.50;99.90
35043;DHT22;21230;51.170;17.024;2023-07-08T02:42:46;13.50;99.90
35043;DHT22;21230;51.170;17.024;2023-07-08T02:45:12;13.50;99.90
35043;DHT22;21230;51.170;17.024;2023-07-08T02:47:38;13.50;99.90
35043;DHT22;21230;51.170;17.024;2023-07-08T02:50:04;13.50;99.90
35043;DHT22;21230;51.170;17.024;2023-07-08T02:52:30;13.50;99.90
35043;DHT22;21230;51.170;17.024;2023-07-08T02:54:55;13.40;99.90
35043;DHT22;21230;51.170;17.024;2023-07-08T02:57:21;13.40;99.90
35043;DHT22;21230;51.170;17.024;2023-07-08T02:59:47;13.40;99.90
35043;DHT22;21230;51.170;17.024;2023-07-08T03:02:12;13.40;99.90
35043;DHT22;21230;51.170;17.024;2023-07-08T03:04:38;13.50;99.90
35043;DHT22;21230;51.170;17.024;2023-07-08T03:07:05;13.60;99.90
35043;DHT22;21230;51.170;17.024;2023-07-08T03:09:31;13.60;99.90
35043;DHT22;21230;51.170;17.024;2023-07-08T03:11:58;13.70;99.90
35043;DHT22;21230;51.170;17.024;2023-07-08T03:14:24;13.70;99.90
35043;DHT22;21230;51.170;17.024;2023-07-08T03:16:49;13.80;99.90
35043;DHT22;21230;51.170;17.024;2023-07-08T03:19:15;13.90;99.90
35043;DHT22;21230;51.170;17.024;2023-07-08T03:21:42;13.90;99.90
35043;DHT22;21230;51.170;17.024;2023-07-08T03:24:11;14.00;99.90
35043;DHT22;21230;51.170;17.024;2023-07-08T03:26:37;14.10;99.90
35043;DHT22;21230;51.170;17.024;2023-07-08T03:29:03;14.10;99.90
35043;DHT22;21230;51.170;17.024;2023-07-08T03:31:28;14.10;99.90
35043;DHT22;21230;51.170;17.024;2023-07-08T03:33:54;14.20;99.90
35043;DHT22;21230;51.170;17.024;2023-07-08T03:36:20;14.30;99.90
35043;DHT22;21230;51.170;17.024;2023-07-08T03:38:50;14.40;99.90
35043;DHT22;21230;51.170;17.024;2023-07-08T03:41:16;14.50;99.90
35043;DHT22;21230;51.170;17.024;2023-07-08T03:43:42;14.60;99.90
35043;DHT22;21230;51.170;17.024;2023-07-08T03:46:11;14.70;99.90
35043;DHT22;21230;51.170;17.024;2023-07-08T03:48:37;14.70;99.90
35043;DHT22;21230;51.170;17.024;2023-07-08T03:51:03;14.80;99.90
35043;DHT22;21230;51.170;17.024;2023-07-08T03:53:29;14.80;99.90
35043;DHT22;21230;51.170;17.024;2023-07-08T03:55:55;14.90;99.90
35043;DHT22;21230;51.170;17.024;2023-07-08T03:58:20;15.00;99.90
35043;DHT22;21230;51.170;17.024;2023-07-08T04:00:46;15.00;99.90
35043;DHT22;21230;51.170;17.024;2023-07-08T04:03:12;15.10;99.90
35043;DHT22;21230;51.170;17.024;2023-07-08T04:05:37;15.20;99.90
35043;DHT22;21230;51.170;17.024;2023-07-08T04:08:04;15.30;99.90
35043;DHT22;21230;51.170;17.024;2023-07-08T04:10:29;15.40;99.90
35043;DHT22;21230;51.170;17.024;2023-07-08T04:12:55;15.50;99.90
35043;DHT22;21230;51.170;17.024;2023-07-08T04:15:21;15.60;99.90
35043;DHT22;21230;51.170;17.024;2023-07-08T04:17:50;15.70;99.90
35043;DHT22;21230;51.170;17.024;2023-07-08T04:20:18;15.90;99.90
35043;DHT22;21230;51.170;17.024;2023-07-08T04:22:44;16.00;99.90
35043;DHT22;21230;51.170;17.024;2023-07-08T04:25:10;16.10;99.90
35043;DHT22;21230;51.170;17.024;2023-07-08T04:27:37;16.20;99.90
35043;DHT22;21230;51.170;17.024;2023-07-08T04:30:03;16.30;99.90
35043;DHT22;21230;51.170;17.024;2023-07-08T04:32:29;16.30;99.90
35043;DHT22;21230;51.170;17.024;2023-07-08T04:34:55;16.40;99.90
35043;DHT22;21230;51.170;17.024;2023-07-08T04:37:21;16.50;99.90
35043;DHT22;21230;51.170;17.024;2023-07-08T04:39:46;16.60;99.90
35043;DHT22;21230;51.170;17.024;2023-07-08T04:42:13;16.70;99.90
35043;DHT22;21230;51.170;17.024;2023-07-08T04:44:41;16.80;99.90
35043;DHT22;21230;51.170;17.024;2023-07-08T04:47:08;16.80;99.90
35043;DHT22;21230;51.170;17.024;2023-07-08T04:49:34;16.80;99.90
35043;DHT22;21230;51.170;17.024;2023-07-08T04:52:01;16.90;99.90
35043;DHT22;21230;51.170;17.024;2023-07-08T04:54:27;17.00;99.90
35043;DHT22;21230;51.170;17.024;2023-07-08T04:56:53;17.10;99.90
35043;DHT22;21230;51.170;17.024;2023-07-08T04:59:21;17.20;99.90
35043;DHT22;21230;51.170;17.024;2023-07-08T05:01:47;17.30;99.90
35043;DHT22;21230;51.170;17.024;2023-07-08T05:04:13;17.50;99.90
35043;DHT22;21230;51.170;17.024;2023-07-08T05:06:39;17.60;99.90
35043;DHT22;21230;51.170;17.024;2023-07-08T05:09:05;17.60;99.90
35043;DHT22;21230;51.170;17.024;2023-07-08T05:11:31;17.70;99.90
35043;DHT22;21230;51.170;17.024;2023-07-08T05:13:57;17.80;99.90
35043;DHT22;21230;51.170;17.024;2023-07-08T05:16:22;17.80;99.90
35043;DHT22;21230;51.170;17.024;2023-07-08T05:18:48;17.90;99.90
35043;DHT22;21230;51.170;17.024;2023-07-08T05:21:14;18.00;99.90
35043;DHT22;21230;51.170;17.024;2023-07-08T05:23:40;18.00;99.90
35043;DHT22;21230;51.170;17.024;2023-07-08T05:26:06;18.10;99.90
35043;DHT22;21230;51.170;17.024;2023-07-08T05:28:33;18.20;99.90
35043;DHT22;21230;51.170;17.024;2023-07-08T05:30:58;18.30;99.90
35043;DHT22;21230;51.170;17.024;2023-07-08T05:33:25;18.40;99.90
35043;DHT22;21230;51.170;17.024;2023-07-08T05:35:51;18.50;99.90
35043;DHT22;21230;51.170;17.024;2023-07-08T05:38:16;18.60;99.90
35043;DHT22;21230;51.170;17.024;2023-07-08T05:40:42;18.80;99.90
35043;DHT22;21230;51.170;17.024;2023-07-08T05:43:08;19.00;99.90
35043;DHT22;21230;51.170;17.024;2023-07-08T05:45:34;19.10;99.90
35043;DHT22;21230;51.170;17.024;2023-07-08T05:48:01;19.30;99.90
35043;DHT22;21230;51.170;17.024;2023-07-08T05:50:27;19.30;99.90
35043;DHT22;21230;51.170;17.024;2023-07-08T05:52:53;19.50;99.90
35043;DHT22;21230;51.170;17.024;2023-07-08T05:55:19;19.50;99.90
35043;DHT22;21230;51.170;17.024;2023-07-08T05:57:44;19.70;99.90
35043;DHT22;21230;51.170;17.024;2023-07-08T06:00:10;19.80;99.90
35043;DHT22;21230;51.170;17.024;2023-07-08T06:02:36;20.00;99.90
35043;DHT22;21230;51.170;17.024;2023-07-08T06:05:02;20.10;99.90
35043;DHT22;21230;51.170;17.024;2023-07-08T06:07:28;20.20;98.60
35043;DHT22;21230;51.170;17.024;2023-07-08T06:09:53;20.30;98.00
35043;DHT22;21230;51.170;17.024;2023-07-08T06:12:21;20.40;97.40
35043;DHT22;21230;51.170;17.024;2023-07-08T06:14:47;20.50;97.30
35043;DHT22;21230;51.170;17.024;2023-07-08T06:17:13;20.70;97.50
35043;DHT22;21230;51.170;17.024;2023-07-08T06:19:38;20.70;96.20
35043;DHT22;21230;51.170;17.024;2023-07-08T06:22:04;20.90;94.20
35043;DHT22;21230;51.170;17.024;2023-07-08T06:24:30;20.90;92.70
35043;DHT22;21230;51.170;17.024;2023-07-08T06:26:55;21.00;93.80
35043;DHT22;21230;51.170;17.024;2023-07-08T06:29:21;21.10;92.60
35043;DHT22;21230;51.170;17.024;2023-07-08T06:31:46;21.20;92.00
35043;DHT22;21230;51.170;17.024;2023-07-08T06:34:12;21.40;91.10
35043;DHT22;21230;51.170;17.024;2023-07-08T06:36:38;21.50;90.40
35043;DHT22;21230;51.170;17.024;2023-07-08T06:39:03;21.60;90.10
35043;DHT22;21230;51.170;17.024;2023-07-08T06:41:32;21.70;88.80
35043;DHT22;21230;51.170;17.024;2023-07-08T06:43:58;21.90;85.50
35043;DHT22;21230;51.170;17.024;2023-07-08T06:46:24;22.00;82.90
35043;DHT22;21230;51.170;17.024;2023-07-08T06:48:49;22.10;82.50
35043;DHT22;21230;51.170;17.024;2023-07-08T06:51:15;22.20;81.50
35043;DHT22;21230;51.170;17.024;2023-07-08T06:53:41;22.40;80.90
35043;DHT22;21230;51.170;17.024;2023-07-08T06:56:06;22.40;77.10
35043;DHT22;21230;51.170;17.024;2023-07-08T06:58:32;22.60;74.80
35043;DHT22;21230;51.170;17.024;2023-07-08T07:03:27;22.80;76.10
35043;DHT22;21230;51.170;17.024;2023-07-08T07:05:53;22.90;74.50
35043;DHT22;21230;51.170;17.024;2023-07-08T07:08:18;23.00;75.00
35043;DHT22;21230;51.170;17.024;2023-07-08T07:10:44;23.10;73.90
35043;DHT22;21230;51.170;17.024;2023-07-08T07:13:10;23.30;72.00
35043;DHT22;21230;51.170;17.024;2023-07-08T07:15:35;23.40;71.40
35043;DHT22;21230;51.170;17.024;2023-07-08T07:18:01;23.50;68.90
35043;DHT22;21230;51.170;17.024;2023-07-08T07:20:27;23.70;66.90
35043;DHT22;21230;51.170;17.024;2023-07-08T07:22:52;23.80;63.70
35043;DHT22;21230;51.170;17.024;2023-07-08T07:25:19;24.00;62.30
35043;DHT22;21230;51.170;17.024;2023-07-08T07:27:44;24.10;54.40
35043;DHT22;21230;51.170;17.024;2023-07-08T07:30:10;24.20;50.60
35043;DHT22;21230;51.170;17.024;2023-07-08T07:32:43;24.40;47.80
35043;DHT22;21230;51.170;17.024;2023-07-08T07:35:12;24.50;46.10
35043;DHT22;21230;51.170;17.024;2023-07-08T07:37:40;24.70;45.70
35043;DHT22;21230;51.170;17.024;2023-07-08T07:40:07;24.90;42.40
35043;DHT22;21230;51.170;17.024;2023-07-08T07:42:37;25.00;40.10
35043;DHT22;21230;51.170;17.024;2023-07-08T07:45:04;25.10;37.80
35043;DHT22;21230;51.170;17.024;2023-07-08T07:47:30;25.20;36.50
35043;DHT22;21230;51.170;17.024;2023-07-08T07:49:56;25.40;35.90
35043;DHT22;21230;51.170;17.024;2023-07-08T07:52:21;25.40;35.00
35043;DHT22;21230;51.170;17.024;2023-07-08T07:54:50;25.50;34.30
35043;DHT22;21230;51.170;17.024;2023-07-08T07:57:16;25.60;34.00
35043;DHT22;21230;51.170;17.024;2023-07-08T07:59:42;25.70;32.40
35043;DHT22;21230;51.170;17.024;2023-07-08T08:02:07;25.70;31.30
35043;DHT22;21230;51.170;17.024;2023-07-08T08:04:33;25.90;32.30
35043;DHT22;21230;51.170;17.024;2023-07-08T08:06:59;26.00;30.50
35043;DHT22;21230;51.170;17.024;2023-07-08T08:09:25;26.00;30.60
35043;DHT22;21230;51.170;17.024;2023-07-08T08:11:50;26.10;29.50
35043;DHT22;21230;51.170;17.024;2023-07-08T08:14:17;26.10;29.50
35043;DHT22;21230;51.170;17.024;2023-07-08T08:16:43;26.20;29.30
35043;DHT22;21230;51.170;17.024;2023-07-08T08:19:08;26.30;28.50
35043;DHT22;21230;51.170;17.024;2023-07-08T08:21:34;26.40;27.90
35043;DHT22;21230;51.170;17.024;2023-07-08T08:24:00;26.50;28.60
35043;DHT22;21230;51.170;17.024;2023-07-08T08:26:25;26.50;27.70
35043;DHT22;21230;51.170;17.024;2023-07-08T08:28:51;26.60;26.90
35043;DHT22;21230;51.170;17.024;2023-07-08T08:31:17;26.60;26.80
35043;DHT22;21230;51.170;17.024;2023-07-08T08:33:42;26.60;25.00
35043;DHT22;21230;51.170;17.024;2023-07-08T08:36:08;26.70;26.00
35043;DHT22;21230;51.170;17.024;2023-07-08T08:38:34;26.70;26.10
35043;DHT22;21230;51.170;17.024;2023-07-08T08:41:02;26.90;28.50
35043;DHT22;21230;51.170;17.024;2023-07-08T08:43:31;26.90;26.50
35043;DHT22;21230;51.170;17.024;2023-07-08T08:46:08;27.00;26.20
35043;DHT22;21230;51.170;17.024;2023-07-08T08:48:37;27.00;23.70
35043;DHT22;21230;51.170;17.024;2023-07-08T08:51:06;26.90;24.80
35043;DHT22;21230;51.170;17.024;2023-07-08T08:53:33;26.90;25.80
35043;DHT22;21230;51.170;17.024;2023-07-08T08:56:21;27.00;25.40
35043;DHT22;21230;51.170;17.024;2023-07-08T08:58:46;27.00;24.10
35043;DHT22;21230;51.170;17.024;2023-07-08T09:01:13;27.00;22.70
35043;DHT22;21230;51.170;17.024;2023-07-08T09:06:16;27.30;24.20
35043;DHT22;21230;51.170;17.024;2023-07-08T09:08:43;27.40;24.50
35043;DHT22;21230;51.170;17.024;2023-07-08T09:11:17;27.50;22.40
35043;DHT22;21230;51.170;17.024;2023-07-08T09:13:44;27.40;19.70
35043;DHT22;21230;51.170;17.024;2023-07-08T09:16:16;27.20;17.70
35043;DHT22;21230;51.170;17.024;2023-07-08T09:18:45;27.20;22.30
35043;DHT22;21230;51.170;17.024;2023-07-08T09:21:36;27.30;21.50
35043;DHT22;21230;51.170;17.024;2023-07-08T09:24:04;27.40;22.70
35043;DHT22;21230;51.170;17.024;2023-07-08T09:26:33;27.50;20.50
35043;DHT22;21230;51.170;17.024;2023-07-08T09:28:59;27.40;19.90
35043;DHT22;21230;51.170;17.024;2023-07-08T09:31:29;27.50;21.70
35043;DHT22;21230;51.170;17.024;2023-07-08T09:34:09;27.50;22.60
35043;DHT22;21230;51.170;17.024;2023-07-08T09:36:38;27.50;22.80
35043;DHT22;21230;51.170;17.024;2023-07-08T09:39:08;27.60;22.20
35043;DHT22;21230;51.170;17.024;2023-07-08T09:41:35;27.70;21.90
35043;DHT22;21230;51.170;17.024;2023-07-08T09:46:48;28.00;20.80
35043;DHT22;21230;51.170;17.024;2023-07-08T09:49:21;28.10;21.00
35043;DHT22;21230;51.170;17.024;2023-07-08T09:51:47;28.10;20.10
35043;DHT22;21230;51.170;17.024;2023-07-08T09:54:16;28.10;21.00
35043;DHT22;21230;51.170;17.024;2023-07-08T09:56:42;28.20;21.60
35043;DHT22;21230;51.170;17.024;2023-07-08T09:59:11;28.20;20.10
35043;DHT22;21230;51.170;17.024;2023-07-08T10:01:37;28.30;19.80
35043;DHT22;21230;51.170;17.024;2023-07-08T10:04:03;28.20;19.40
35043;DHT22;21230;51.170;17.024;2023-07-08T10:06:32;28.20;19.80
35043;DHT22;21230;51.170;17.024;2023-07-08T10:09:02;27.90;16.90
35043;DHT22;21230;51.170;17.024;2023-07-08T10:11:29;27.90;18.80
35043;DHT22;21230;51.170;17.024;2023-07-08T10:14:13;28.10;20.90
35043;DHT22;21230;51.170;17.024;2023-07-08T10:16:45;28.20;19.70
35043;DHT22;21230;51.170;17.024;2023-07-08T10:19:16;28.20;18.70
35043;DHT22;21230;51.170;17.024;2023-07-08T10:21:59;28.30;18.30
35043;DHT22;21230;51.170;17.024;2023-07-08T10:24:40;28.40;17.90
35043;DHT22;21230;51.170;17.024;2023-07-08T10:32:16;28.20;15.80
35043;DHT22;21230;51.170;17.024;2023-07-08T10:45:20;28.10;16.10
35043;DHT22;21230;51.170;17.024;2023-07-08T10:55:55;28.40;19.40
35043;DHT22;21230;51.170;17.024;2023-07-08T11:01:05;28.70;16.70
35043;DHT22;21230;51.170;17.024;2023-07-08T11:06:13;29.10;17.00
35043;DHT22;21230;51.170;17.024;2023-07-08T11:09:14;29.10;15.70
35043;DHT22;21230;51.170;17.024;2023-07-08T11:11:33;29.20;16.10
35043;DHT22;21230;51.170;17.024;2023-07-08T11:14:13;29.30;15.70
35043;DHT22;21230;51.170;17.024;2023-07-08T11:16:44;29.30;14.70
35043;DHT22;21230;51.170;17.024;2023-07-08T11:19:13;29.30;16.20
35043;DHT22;21230;51.170;17.024;2023-07-08T11:21:43;29.30;15.90
35043;DHT22;21230;51.170;17.024;2023-07-08T11:24:21;29.40;16.30
35043;DHT22;21230;51.170;17.024;2023-07-08T11:26:50;29.50;14.60
35043;DHT22;21230;51.170;17.024;2023-07-08T11:32:12;29.10;12.50
35043;DHT22;21230;51.170;17.024;2023-07-08T11:34:38;28.80;14.00
35043;DHT22;21230;51.170;17.024;2023-07-08T11:37:05;28.70;13.70
35043;DHT22;21230;51.170;17.024;2023-07-08T11:39:44;28.70;13.60
35043;DHT22;21230;51.170;17.024;2023-07-08T11:42:13;28.80;16.10
35043;DHT22;21230;51.170;17.024;2023-07-08T11:44:47;28.80;15.60
35043;DHT22;21230;51.170;17.024;2023-07-08T11:47:26;28.70;15.60
35043;DHT22;21230;51.170;17.024;2023-07-08T11:49:58;28.90;17.60
35043;DHT22;21230;51.170;17.024;2023-07-08T11:52:23;28.90;14.10
35043;DHT22;21230;51.170;17.024;2023-07-08T11:54:55;28.80;15.00
35043;DHT22;21230;51.170;17.024;2023-07-08T11:57:27;28.80;13.00
35043;DHT22;21230;51.170;17.024;2023-07-08T12:00:06;28.70;13.90
35043;DHT22;21230;51.170;17.024;2023-07-08T12:02:47;28.60;13.60
35043;DHT22;21230;51.170;17.024;2023-07-08T12:05:13;28.80;15.30
35043;DHT22;21230;51.170;17.024;2023-07-08T12:07:44;28.90;15.00
35043;DHT22;21230;51.170;17.024;2023-07-08T12:10:13;28.90;14.00
35043;DHT22;21230;51.170;17.024;2023-07-08T12:12:40;29.00;14.30
35043;DHT22;21230;51.170;17.024;2023-07-08T12:17:38;29.30;14.00
35043;DHT22;21230;51.170;17.024;2023-07-08T12:20:06;29.40;14.50
35043;DHT22;21230;51.170;17.024;2023-07-08T12:22:33;29.50;15.90
35043;DHT22;21230;51.170;17.024;2023-07-08T12:24:59;29.50;15.00
35043;DHT22;21230;51.170;17.024;2023-07-08T12:27:33;29.50;12.80
35043;DHT22;21230;51.170;17.024;2023-07-08T12:29:59;29.70;14.80
35043;DHT22;21230;51.170;17.024;2023-07-08T12:32:24;29.70;15.30
35043;DHT22;21230;51.170;17.024;2023-07-08T12:34:52;29.80;14.30
35043;DHT22;21230;51.170;17.024;2023-07-08T12:37:18;29.80;15.30
35043;DHT22;21230;51.170;17.024;2023-07-08T12:39:44;29.80;14.90
35043;DHT22;21230;51.170;17.024;2023-07-08T12:42:18;29.70;13.70
35043;DHT22;21230;51.170;17.024;2023-07-08T12:44:44;29.60;14.00
35043;DHT22;21230;51.170;17.024;2023-07-08T12:47:10;29.80;13.40
35043;DHT22;21230;51.170;17.024;2023-07-08T12:49:36;29.80;14.10
35043;DHT22;21230;51.170;17.024;2023-07-08T12:52:02;29.90;12.70
35043;DHT22;21230;51.170;17.024;2023-07-08T12:54:28;29.90;13.80
35043;DHT22;21230;51.170;17.024;2023-07-08T12:56:53;30.00;13.30
35043;DHT22;21230;51.170;17.024;2023-07-08T12:59:20;30.10;13.50
35043;DHT22;21230;51.170;17.024;2023-07-08T13:01:47;30.20;13.30
35043;DHT22;21230;51.170;17.024;2023-07-08T13:04:13;30.10;14.10
35043;DHT22;21230;51.170;17.024;2023-07-08T13:06:39;30.10;14.30
35043;DHT22;21230;51.170;17.024;2023-07-08T13:11:38;30.20;15.20
35043;DHT22;21230;51.170;17.024;2023-07-08T13:14:06;30.20;14.10
35043;DHT22;21230;51.170;17.024;2023-07-08T13:16:33;30.30;13.70
35043;DHT22;21230;51.170;17.024;2023-07-08T13:18:59;30.00;11.70
35043;DHT22;21230;51.170;17.024;2023-07-08T13:21:25;30.00;14.60
35043;DHT22;21230;51.170;17.024;2023-07-08T13:23:53;29.90;12.70
35043;DHT22;21230;51.170;17.024;2023-07-08T13:26:21;30.00;13.60
35043;DHT22;21230;51.170;17.024;2023-07-08T13:28:47;30.00;14.20
35043;DHT22;21230;51.170;17.024;2023-07-08T13:31:15;29.90;14.80
35043;DHT22;21230;51.170;17.024;2023-07-08T13:33:46;30.00;15.30
35043;DHT22;21230;51.170;17.024;2023-07-08T13:36:12;30.00;13.30
35043;DHT22;21230;51.170;17.024;2023-07-08T13:38:38;30.00;14.10
35043;DHT22;21230;51.170;17.024;2023-07-08T13:41:05;29.90;14.60
35043;DHT22;21230;51.170;17.024;2023-07-08T13:43:32;29.90;15.40
35043;DHT22;21230;51.170;17.024;2023-07-08T13:45:58;29.90;13.90
35043;DHT22;21230;51.170;17.024;2023-07-08T13:48:26;30.00;14.10
35043;DHT22;21230;51.170;17.024;2023-07-08T13:51:08;30.10;14.00
35043;DHT22;21230;51.170;17.024;2023-07-08T13:56:03;30.30;13.00
35043;DHT22;21230;51.170;17.024;2023-07-08T13:58:29;30.30;11.90
35043;DHT22;21230;51.170;17.024;2023-07-08T14:00:56;30.40;12.40
35043;DHT22;21230;51.170;17.024;2023-07-08T14:03:23;30.50;10.90
35043;DHT22;21230;51.170;17.024;2023-07-08T14:05:50;30.50;9.90
35043;DHT22;21230;51.170;17.024;2023-07-08T14:08:16;30.40;10.30
35043;DHT22;21230;51.170;17.024;2023-07-08T14:10:43;30.20;9.80
35043;DHT22;21230;51.170;17.024;2023-07-08T14:13:10;30.10;13.10
35043;DHT22;21230;51.170;17.024;2023-07-08T14:15:36;30.10;12.80
35043;DHT22;21230;51.170;17.024;2023-07-08T14:18:02;30.20;13.10
35043;DHT22;21230;51.170;17.024;2023-07-08T14:20:28;30.20;12.70
35043;DHT22;21230;51.170;17.024;2023-07-08T14:22:55;30.20;11.60
35043;DHT22;21230;51.170;17.024;2023-07-08T14:25:20;30.30;11.50
35043;DHT22;21230;51.170;17.024;2023-07-08T14:27:52;30.40;11.10
35043;DHT22;21230;51.170;17.024;2023-07-08T14:30:17;30.40;11.60
35043;DHT22;21230;51.170;17.024;2023-07-08T14:32:43;30.50;12.20
35043;DHT22;21230;51.170;17.024;2023-07-08T14:35:12;30.40;10.20
35043;DHT22;21230;51.170;17.024;2023-07-08T14:37:39;30.30;11.40
35043;DHT22;21230;51.170;17.024;2023-07-08T14:40:27;30.30;12.10
35043;DHT22;21230;51.170;17.024;2023-07-08T14:42:56;30.10;12.60
35043;DHT22;21230;51.170;17.024;2023-07-08T14:45:23;30.10;12.90
35043;DHT22;21230;51.170;17.024;2023-07-08T14:47:49;30.00;10.80
35043;DHT22;21230;51.170;17.024;2023-07-08T14:50:14;30.00;11.50
35043;DHT22;21230;51.170;17.024;2023-07-08T14:52:41;29.90;11.70
35043;DHT22;21230;51.170;17.024;2023-07-08T14:55:07;29.90;12.40
35043;DHT22;21230;51.170;17.024;2023-07-08T14:57:40;29.80;12.60
35043;DHT22;21230;51.170;17.024;2023-07-08T15:00:09;29.70;12.80
35043;DHT22;21230;51.170;17.024;2023-07-08T15:02:35;29.70;12.50
35043;DHT22;21230;51.170;17.024;2023-07-08T15:05:01;29.60;12.10
35043;DHT22;21230;51.170;17.024;2023-07-08T15:07:26;29.50;12.00
35043;DHT22;21230;51.170;17.024;2023-07-08T15:09:52;29.10;12.00
35043;DHT22;21230;51.170;17.024;2023-07-08T15:12:18;29.00;12.10
35043;DHT22;21230;51.170;17.024;2023-07-08T15:14:44;28.90;11.80
35043;DHT22;21230;51.170;17.024;2023-07-08T15:17:12;28.90;12.50
35043;DHT22;21230;51.170;17.024;2023-07-08T15:19:41;29.00;11.30
35043;DHT22;21230;51.170;17.024;2023-07-08T15:22:07;29.10;12.60
35043;DHT22;21230;51.170;17.024;2023-07-08T15:24:32;29.20;12.60
35043;DHT22;21230;51.170;17.024;2023-07-08T15:26:58;29.30;12.80
35043;DHT22;21230;51.170;17.024;2023-07-08T15:29:24;29.40;13.00
35043;DHT22;21230;51.170;17.024;2023-07-08T15:31:50;29.50;13.30
35043;DHT22;21230;51.170;17.024;2023-07-08T15:34:22;29.60;13.30
35043;DHT22;21230;51.170;17.024;2023-07-08T15:36:48;29.70;13.20
35043;DHT22;21230;51.170;17.024;2023-07-08T15:39:14;29.70;13.20
35043;DHT22;21230;51.170;17.024;2023-07-08T15:41:40;29.80;12.70
35043;DHT22;21230;51.170;17.024;2023-07-08T15:44:09;29.90;11.60
35043;DHT22;21230;51.170;17.024;2023-07-08T15:46:36;29.90;11.90
35043;DHT22;21230;51.170;17.024;2023-07-08T15:49:18;30.00;12.20
35043;DHT22;21230;51.170;17.024;2023-07-08T15:51:44;30.00;11.10
35043;DHT22;21230;51.170;17.024;2023-07-08T15:54:10;29.90;10.10
35043;DHT22;21230;51.170;17.024;2023-07-08T15:56:36;29.70;10.70
35043;DHT22;21230;51.170;17.024;2023-07-08T15:59:02;29.80;12.00
35043;DHT22;21230;51.170;17.024;2023-07-08T16:01:28;29.90;11.20
35043;DHT22;21230;51.170;17.024;2023-07-08T16:03:54;30.00;12.90
35043;DHT22;21230;51.170;17.024;2023-07-08T16:06:19;30.00;11.40
35043;DHT22;21230;51.170;17.024;2023-07-08T16:08:45;30.00;12.50